Observation data for Morton on 01/18/2019      Previous  Date  Next       Current Mesonet Observations  Soil Data  Daily Summary Page  Observations in Plain Language
KMNS 180600Z 21011KT 07/M01 A3001 RMK A01 T00741014  RH  054%=      5-min Rain = 0
KMNS 180605Z 21010KT 07/M01 A3001 RMK A01 T00731014  RH  055%=      5-min Rain = 0
KMNS 180610Z 21010KT 07/M01 A3001 RMK A01 T00721014  RH  055%=      5-min Rain = 0
KMNS 180615Z 21010KT 07/M01 A3001 RMK A01 T00701014  RH  056%=      5-min Rain = 0
KMNS 180620Z 22009KT 07/M01 A30 RMK A01 T00681014  RH  056%=      5-min Rain = 0
KMNS 180625Z 22008KT 07/M01 A30 RMK A01 T00691013  RH  056%=      5-min Rain = 0
KMNS 180630Z 23008KT 07/M01 A30 RMK A01 T00681014  RH  057%=      5-min Rain = 0
KMNS 180635Z 23009KT 07/M01 A30 RMK A01 T00681013  RH  057%=      5-min Rain = 0
KMNS 180640Z 24008KT 07/M01 A30 RMK A01 T00651014  RH  057%=      5-min Rain = 0
KMNS 180645Z 26006KT 06/M02 A30 RMK A01 T00611015  RH  059%=      5-min Rain = 0
KMNS 180650Z 27006KT 05/M02 A30 RMK A01 T00521018  RH  061%=      5-min Rain = 0
KMNS 180655Z 26007KT 05/M02 A30 RMK A01 T00491017  RH  063%=      5-min Rain = 0
KMNS 180700Z 25008KT 05/M02 A30 RMK A01 T00501016  RH  063%=      5-min Rain = 0
KMNS 180705Z 25008KT 05/M02 A2999 RMK A01 T00491016  RH  063%=      5-min Rain = 0
KMNS 180710Z 25008KT 05/M02 A2999 RMK A01 T00511016  RH  062%=      5-min Rain = 0
KMNS 180715Z 25008KT 05/M02 A2999 RMK A01 T00511016  RH  062%=      5-min Rain = 0
KMNS 180720Z 24009KT 06/M01 A2998 RMK A01 T00561014  RH  061%=      5-min Rain = 0
KMNS 180725Z 23009KT 06/M01 A2998 RMK A01 T00611014  RH  059%=      5-min Rain = 0
KMNS 180730Z 22008KT 06/M02 A2998 RMK A01 T00601015  RH  059%=      5-min Rain = 0
KMNS 180735Z 22009KT 06/M02 A2997 RMK A01 T00611015  RH  059%=      5-min Rain = 0
KMNS 180740Z 21011KT 06/M02 A2996 RMK A01 T00621015  RH  058%=      5-min Rain = 0
KMNS 180745Z 21010KT 06/M02 A2996 RMK A01 T00621016  RH  058%=      5-min Rain = 0
KMNS 180750Z 21009KT 06/M02 A2996 RMK A01 T00581017  RH  059%=      5-min Rain = 0
KMNS 180755Z 21011KT 06/M02 A2996 RMK A01 T00571017  RH  060%=      5-min Rain = 0
KMNS 180800Z 21012KT 06/M02 A2996 RMK A01 T00601016  RH  058%=      5-min Rain = 0
KMNS 180805Z 22013G18KT 07/M02 A2995 RMK A01 T00651017  RH  057%=      5-min Rain = 0
KMNS 180810Z 22012KT 07/M02 A2995 RMK A01 T00651017  RH  056%=      5-min Rain = 0
KMNS 180815Z 22012KT 07/M02 A2995 RMK A01 T00651017  RH  056%=      5-min Rain = 0
KMNS 180820Z 22011KT 07/M02 A2994 RMK A01 T00661018  RH  056%=      5-min Rain = 0
KMNS 180825Z 22013G19KT 07/M02 A2994 RMK A01 T00671018  RH  055%=      5-min Rain = 0
KMNS 180830Z 22012KT 07/M02 A2994 RMK A01 T00681018  RH  055%=      5-min Rain = 0
KMNS 180835Z 22013G18KT 07/M02 A2994 RMK A01 T00701018  RH  054%=      5-min Rain = 0
KMNS 180840Z 22014KT 07/M02 A2994 RMK A01 T00721018  RH  053%=      5-min Rain = 0
KMNS 180845Z 22014KT 08/M02 A2994 RMK A01 T00761019  RH  052%=      5-min Rain = 0
KMNS 180850Z 23014G20KT 08/M02 A2994 RMK A01 T00771019  RH  051%=      5-min Rain = 0
KMNS 180855Z 23014KT 08/M02 A2994 RMK A01 T00781019  RH  051%=      5-min Rain = 0
KMNS 180900Z 23014G19KT 08/M02 A2994 RMK A01 T00821019  RH  049%=      5-min Rain = 0
KMNS 180905Z 23013G18KT 08/M02 A2994 RMK A01 T00811019  RH  049%=      5-min Rain = 0
KMNS 180910Z 23012KT 08/M02 A2994 RMK A01 T00811020  RH  049%=      5-min Rain = 0
KMNS 180915Z 23012G17KT 08/M02 A2994 RMK A01 T00791020  RH  050%=      5-min Rain = 0
KMNS 180920Z 23012KT 08/M02 A2994 RMK A01 T00781019  RH  051%=      5-min Rain = 0
KMNS 180925Z 23011G16KT 08/M02 A2994 RMK A01 T00761020  RH  051%=      5-min Rain = 0
KMNS 180930Z 24010KT 07/M02 A2994 RMK A01 T00731020  RH  052%=      5-min Rain = 0
KMNS 180935Z 23010KT 07/M02 A2994 RMK A01 T00711019  RH  053%=      5-min Rain = 0
KMNS 180940Z 23011KT 07/M02 A2993 RMK A01 T00721019  RH  053%=      5-min Rain = 0
KMNS 180945Z 24011G17KT 08/M02 A2993 RMK A01 T00751018  RH  052%=      5-min Rain = 0
KMNS 180950Z 23013KT 08/M02 A2993 RMK A01 T00791018  RH  051%=      5-min Rain = 0
KMNS 180955Z 23013G19KT 08/M02 A2992 RMK A01 T00811018  RH  050%=      5-min Rain = 0
KMNS 181000Z 23014G19KT 09/M02 A2992 RMK A01 T00861017  RH  049%=      5-min Rain = 0
KMNS 181005Z 24015KT 09/M02 A2992 RMK A01 T00871018  RH  048%=      5-min Rain = 0
KMNS 181010Z 24015G20KT 08/M02 A2992 RMK A01 T00841019  RH  049%=      5-min Rain = 0
KMNS 181015Z 24015G21KT 09/M02 A2991 RMK A01 T00861018  RH  048%=      5-min Rain = 0
KMNS 181020Z 23015G20KT 09/M02 A2991 RMK A01 T00861018  RH  048%=      5-min Rain = 0
KMNS 181025Z 23014KT 09/M02 A2991 RMK A01 T00871018  RH  048%=      5-min Rain = 0
KMNS 181030Z 24013KT 09/M02 A2991 RMK A01 T00871018  RH  048%=      5-min Rain = 0
KMNS 181035Z 24012KT 08/M02 A299 RMK A01 T00821019  RH  049%=      5-min Rain = 0
KMNS 181040Z 23012G17KT 08/M02 A2989 RMK A01 T00821018  RH  050%=      5-min Rain = 0
KMNS 181045Z 23011KT 08/M02 A2989 RMK A01 T00791018  RH  050%=      5-min Rain = 0
KMNS 181050Z 22011KT 08/M02 A2989 RMK A01 T00771018  RH  051%=      5-min Rain = 0
KMNS 181055Z 23010KT 08/M02 A2988 RMK A01 T00751018  RH  052%=      5-min Rain = 0
KMNS 181100Z 23011KT 08/M02 A2988 RMK A01 T00751017  RH  053%=      5-min Rain = 0
KMNS 181105Z 23012KT 08/M02 A2988 RMK A01 T00751016  RH  053%=      5-min Rain = 0
KMNS 181110Z 23013KT 08/M02 A2987 RMK A01 T00791015  RH  052%=      5-min Rain = 0
KMNS 181115Z 23013KT 08/M01 A2987 RMK A01 T00831014  RH  051%=      5-min Rain = 0
KMNS 181120Z 23012KT 08/M01 A2987 RMK A01 T00841014  RH  050%=      5-min Rain = 0
KMNS 181125Z 23014G19KT 09/M01 A2987 RMK A01 T00861013  RH  050%=      5-min Rain = 0
KMNS 181130Z 23014KT 09/M01 A2986 RMK A01 T00861013  RH  050%=      5-min Rain = 0
KMNS 181135Z 23015G21KT 09/M01 A2986 RMK A01 T00871013  RH  050%=      5-min Rain = 0
KMNS 181140Z 24014G19KT 09/M01 A2986 RMK A01 T00891012  RH  050%=      5-min Rain = 0
KMNS 181145Z 24013KT 09/M01 A2986 RMK A01 T00881012  RH  050%=      5-min Rain = 0
KMNS 181150Z 24013KT 09/M01 A2985 RMK A01 T00881012  RH  050%=      5-min Rain = 0
KMNS 181155Z 24013KT 09/M01 A2985 RMK A01 T00881012  RH  050%=      5-min Rain = 0
KMNS 181200Z 24013KT 09/M01 A2985 RMK A01 T00871011  RH  051%=      5-min Rain = 0
KMNS 181205Z 24013KT 09/M01 A2986 RMK A01 T00881011  RH  050%=      5-min Rain = 0
KMNS 181210Z 24011KT 09/M01 A2985 RMK A01 T00881010  RH  051%=      5-min Rain = 0
KMNS 181215Z 25011KT 09/M01 A2985 RMK A01 T00881010  RH  051%=      5-min Rain = 0
KMNS 181220Z 25012KT 09/M01 A2985 RMK A01 T00861009  RH  052%=      5-min Rain = 0
KMNS 181225Z 24013G18KT 09/M01 A2985 RMK A01 T00881009  RH  051%=      5-min Rain = 0
KMNS 181230Z 24014KT 09/M01 A2985 RMK A01 T00891010  RH  050%=      5-min Rain = 0
KMNS 181235Z 24012G17KT 09/M01 A2985 RMK A01 T00871010  RH  051%=      5-min Rain = 0
KMNS 181240Z 24011G16KT 08/M01 A2985 RMK A01 T00841010  RH  052%=      5-min Rain = 0
KMNS 181245Z 24011KT 08/M01 A2985 RMK A01 T00841010  RH  052%=      5-min Rain = 0
KMNS 181250Z 23011KT 08/M01 A2985 RMK A01 T00841009  RH  052%=      5-min Rain = 0
KMNS 181255Z 24010KT 09/M01 A2985 RMK A01 T00851009  RH  052%=      5-min Rain = 0
KMNS 181300Z 25009KT 08/M01 A2985 RMK A01 T00831009  RH  053%=      5-min Rain = 0
KMNS 181305Z 24008KT 08/M01 A2985 RMK A01 T00801009  RH  054%=      5-min Rain = 0
KMNS 181310Z 24009KT 08/M01 A2985 RMK A01 T00811008  RH  054%=      5-min Rain = 0
KMNS 181315Z 24010KT 08/M01 A2985 RMK A01 T00831008  RH  053%=      5-min Rain = 0
KMNS 181320Z 24010KT 09/M01 A2985 RMK A01 T00851007  RH  053%=      5-min Rain = 0
KMNS 181325Z 25010KT 09/M01 A2985 RMK A01 T00851008  RH  053%=      5-min Rain = 0
KMNS 181330Z 24009KT 08/M01 A2985 RMK A01 T00831008  RH  053%=      5-min Rain = 0
KMNS 181335Z 23009KT 08/M01 A2984 RMK A01 T00831008  RH  053%=      5-min Rain = 0
KMNS 181340Z 23009KT 08/M01 A2984 RMK A01 T00811008  RH  054%=      5-min Rain = 0
KMNS 181345Z 23010KT 08/M01 A2984 RMK A01 T00791008  RH  055%=      5-min Rain = 0
KMNS 181350Z 23010KT 08/M01 A2984 RMK A01 T00781007  RH  055%=      5-min Rain = 0
KMNS 181355Z 22010KT 08/M01 A2984 RMK A01 T00761007  RH  056%=      5-min Rain = 0
KMNS 181400Z 23011KT 08/M01 A2984 RMK A01 T00771006  RH  056%=      5-min Rain = 0
KMNS 181405Z 23012KT 08/M01 A2983 RMK A01 T00811006  RH  055%=      5-min Rain = 0
KMNS 181410Z 24011KT 08/M01 A2984 RMK A01 T00831006  RH  054%=      5-min Rain = 0
KMNS 181415Z 24011KT 08/M01 A2984 RMK A01 T00831006  RH  054%=      5-min Rain = 0
KMNS 181420Z 25010KT 08/M01 A2985 RMK A01 T00781007  RH  055%=      5-min Rain = 0
KMNS 181425Z 25009KT 08/M01 A2985 RMK A01 T00771007  RH  056%=      5-min Rain = 0
KMNS 181430Z 27008KT 07/M01 A2985 RMK A01 T00741007  RH  057%=      5-min Rain = 0
KMNS 181435Z 26009KT 07/M01 A2985 RMK A01 T00701007  RH  059%=      5-min Rain = 0
KMNS 181440Z 26010KT 07/M01 A2985 RMK A01 T00721007  RH  058%=      5-min Rain = 0
KMNS 181445Z 27009KT 07/M01 A2985 RMK A01 T00721006  RH  058%=      5-min Rain = 0
KMNS 181450Z 26010KT 07/M01 A2984 RMK A01 T00731006  RH  058%=      5-min Rain = 0
KMNS 181455Z 26009G14KT 08/M01 A2985 RMK A01 T00751005  RH  058%=      5-min Rain = 0
KMNS 181500Z 25010KT 08/M00 A2984 RMK A01 T00781004  RH  057%=      5-min Rain = 0
KMNS 181505Z 25011KT 08/M00 A2984 RMK A01 T00831004  RH  055%=      5-min Rain = 0
KMNS 181510Z 25011KT 09/M00 A2984 RMK A01 T00871003  RH  054%=      5-min Rain = 0
KMNS 181515Z 25012KT 09/M00 A2984 RMK A01 T00911004  RH  052%=      5-min Rain = 0
KMNS 181520Z 24012G17KT 09/M00 A2984 RMK A01 T00931004  RH  051%=      5-min Rain = 0
KMNS 181525Z 25012KT 10/M00 A2984 RMK A01 T01011004  RH  049%=      5-min Rain = 0
KMNS 181530Z 25013KT 11/M00 A2984 RMK A01 T01091004  RH  046%=      5-min Rain = 0
KMNS 181535Z 25014KT 12/M01 A2983 RMK A01 T01161005  RH  043%=      5-min Rain = 0
KMNS 181540Z 25014G20KT 12/M01 A2983 RMK A01 T01211005  RH  042%=      5-min Rain = 0
KMNS 181545Z 25013KT 13/M01 A2983 RMK A01 T01261006  RH  040%=      5-min Rain = 0
KMNS 181550Z 25014KT 13/M01 A2983 RMK A01 T01291007  RH  039%=      5-min Rain = 0
KMNS 181555Z 25013KT 13/M01 A2983 RMK A01 T01291008  RH  039%=      5-min Rain = 0
KMNS 181600Z 25014G19KT 13/M01 A2983 RMK A01 T01331007  RH  038%=      5-min Rain = 0
KMNS 181605Z 25015KT 14/M01 A2983 RMK A01 T01351008  RH  038%=      5-min Rain = 0
KMNS 181610Z 25014KT 14/M01 A2983 RMK A01 T01391008  RH  037%=      5-min Rain = 0
KMNS 181615Z 25014KT 14/M01 A2983 RMK A01 T01431008  RH  036%=      5-min Rain = 0
KMNS 181620Z 25016G22KT 15/M01 A2983 RMK A01 T01471011  RH  034%=      5-min Rain = 0
KMNS 181625Z 25017G24KT 15/M01 A2982 RMK A01 T01511012  RH  033%=      5-min Rain = 0
KMNS 181630Z 24017G22KT 16/M01 A2982 RMK A01 T01551014  RH  032%=      5-min Rain = 0
KMNS 181635Z 24015G22KT 16/M01 A2982 RMK A01 T01591014  RH  031%=      5-min Rain = 0
KMNS 181640Z 25017G22KT 16/M02 A2982 RMK A01 T01641017  RH  029%=      5-min Rain = 0
KMNS 181645Z 25018G25KT 17/M02 A2981 RMK A01 T01711019  RH  028%=      5-min Rain = 0
KMNS 181650Z 25019G26KT 17/M02 A2981 RMK A01 T01741022  RH  026%=      5-min Rain = 0
KMNS 181655Z 25022G30KT 18/M02 A2981 RMK A01 T01761024  RH  026%=      5-min Rain = 0
KMNS 181700Z 26021G30KT 18/M02 A2981 RMK A01 T01801022  RH  025%=      5-min Rain = 0
KMNS 181705Z 27024G34KT 18/M02 A298 RMK A01 T01811020  RH  026%=      5-min Rain = 0
KMNS 181710Z 27025G39KT 18/M02 A2981 RMK A01 T01821020  RH  026%=      5-min Rain = 0
KMNS 181715Z 28027G33KT 18/M02 A298 RMK A01 T01821017  RH  026%=      5-min Rain = 0
KMNS 181720Z 27027G34KT 18/M01 A298 RMK A01 T01811014  RH  027%=      5-min Rain = 0
KMNS 181725Z 27030G40KT 18/M01 A298 RMK A01 T01791014  RH  027%=      5-min Rain = 0
KMNS 181730Z 28029G42KT 18/M01 A298 RMK A01 T01781012  RH  028%=      5-min Rain = 0
KMNS 181735Z 28031G39KT 18/M01 A298 RMK A01 T01771010  RH  028%=      5-min Rain = 0
KMNS 181740Z 28032G39KT 18/M01 A298 RMK A01 T01771011  RH  028%=      5-min Rain = 0
KMNS 181745Z 27029G36KT 18/M01 A2979 RMK A01 T01771010  RH  028%=      5-min Rain = 0
KMNS 181750Z 28031G40KT 18/M01 A2979 RMK A01 T01781009  RH  028%=      5-min Rain = 0
KMNS 181755Z 27028G34KT 18/M01 A2978 RMK A01 T01781010  RH  028%=      5-min Rain = 0
KMNS 181800Z 27030G38KT 18/M01 A2978 RMK A01 T01791011  RH  028%=      5-min Rain = 0
KMNS 181805Z 27028G36KT 18/M01 A2978 RMK A01 T01791011  RH  028%=      5-min Rain = 0
KMNS 181810Z 28028G38KT 18/M01 A2978 RMK A01 T01811009  RH  028%=      5-min Rain = 0
KMNS 181815Z 28029G38KT 18/M01 A2978 RMK A01 T01801010  RH  028%=      5-min Rain = 0
KMNS 181820Z 27025G33KT 18/M01 A2978 RMK A01 T01831010  RH  027%=      5-min Rain = 0
KMNS 181825Z 27026G34KT 19/M01 A2977 RMK A01 T01851013  RH  026%=      5-min Rain = 0
KMNS 181830Z 27024G30KT 18/M01 A2976 RMK A01 T01841012  RH  027%=      5-min Rain = 0
KMNS 181835Z 27027G35KT 19/M01 A2976 RMK A01 T01851013  RH  026%=      5-min Rain = 0
KMNS 181840Z 28027G35KT 18/M01 A2976 RMK A01 T01831013  RH  027%=      5-min Rain = 0
KMNS 181845Z 28022G29KT 18/M01 A2976 RMK A01 T01811012  RH  027%=      5-min Rain = 0
KMNS 181850Z 28026G34KT 18/M01 A2976 RMK A01 T01781008  RH  029%=      5-min Rain = 0
KMNS 181855Z 27027G35KT 18/M01 A2975 RMK A01 T01791011  RH  028%=      5-min Rain = 0
KMNS 181900Z 27022G29KT 18/M01 A2975 RMK A01 T01801011  RH  027%=      5-min Rain = 0
KMNS 181905Z 27023G31KT 18/M01 A2974 RMK A01 T01811014  RH  027%=      5-min Rain = 0
KMNS 181910Z 27024G33KT 18/M02 A2974 RMK A01 T01831015  RH  026%=      5-min Rain = 0
KMNS 181915Z 26026G33KT 18/M01 A2973 RMK A01 T01811014  RH  027%=      5-min Rain = 0
KMNS 181920Z 27023G30KT 19/M01 A2973 RMK A01 T01861010  RH  027%=      5-min Rain = 0
KMNS 181925Z 27026G35KT 19/M01 A2973 RMK A01 T01861014  RH  026%=      5-min Rain = 0
KMNS 181930Z 27024G33KT 19/M01 A2972 RMK A01 T01881011  RH  026%=      5-min Rain = 0
KMNS 181935Z 27025G34KT 18/M01 A2972 RMK A01 T01811008  RH  028%=      5-min Rain = 0
KMNS 181940Z 28030G40KT 18/M02 A2972 RMK A01 T01781015  RH  027%=      5-min Rain = 0
KMNS 181945Z 28025G35KT 18/M01 A2972 RMK A01 T01811008  RH  028%=      5-min Rain = 0
KMNS 181950Z 27028G34KT 18/M01 A2972 RMK A01 T01761012  RH  028%=      5-min Rain = 0
KMNS 181955Z 27025G31KT 18/M01 A2972 RMK A01 T01761008  RH  029%=      5-min Rain = 0
KMNS 182000Z 27027G34KT 17/M01 A2972 RMK A01 T01741007  RH  030%=      5-min Rain = 0
KMNS 182005Z 27027G33KT 18/M00 A2972 RMK A01 T01791004  RH  029%=      5-min Rain = 0
KMNS 182010Z 27027G34KT 18/M01 A2972 RMK A01 T01751005  RH  030%=      5-min Rain = 0
KMNS 182015Z 27027G35KT 17/M01 A2972 RMK A01 T01671006  RH  031%=      5-min Rain = 0
KMNS 182020Z 26029G36KT 16/M00 A2972 RMK A01 T01631004  RH  032%=      5-min Rain = 0
KMNS 182025Z 26026G35KT 16/M00 A2972 RMK A01 T01631002  RH  033%=      5-min Rain = 0
KMNS 182030Z 27026G33KT 16/M00 A2972 RMK A01 T01601001  RH  034%=      5-min Rain = 0
KMNS 182035Z 27027G34KT 16/M00 A2972 RMK A01 T01571004  RH  034%=      5-min Rain = 0
KMNS 182040Z 27029G38KT 15/M01 A2972 RMK A01 T01531005  RH  034%=      5-min Rain = 0
KMNS 182045Z 27028G34KT 15/M02 A2972 RMK A01 T01511017  RH  032%=      5-min Rain = 0
KMNS 182050Z 27028G39KT 15/M02 A2971 RMK A01 T01491020  RH  032%=      5-min Rain = 0
KMNS 182055Z 27026G32KT 16/M02 A2971 RMK A01 T01571016  RH  031%=      5-min Rain = 0
KMNS 182100Z 27025G32KT 16/M02 A2971 RMK A01 T01611015  RH  030%=      5-min Rain = 0
KMNS 182105Z 27025G32KT 16/M02 A2971 RMK A01 T01601023  RH  029%=      5-min Rain = 0
KMNS 182110Z 27025G32KT 16/M03 A2971 RMK A01 T01621030  RH  027%=      5-min Rain = 0
KMNS 182115Z 27025G33KT 16/M03 A2971 RMK A01 T01641034  RH  026%=      5-min Rain = 0
KMNS 182120Z 28024G34KT 16/M04 A297 RMK A01 T01641038  RH  025%=      5-min Rain = 0
KMNS 182125Z 27022G33KT 17/M04 A297 RMK A01 T01661042  RH  024%=      5-min Rain = 0
KMNS 182130Z 27027G34KT 16/M05 A2969 RMK A01 T01621051  RH  023%=      5-min Rain = 0
KMNS 182135Z 26026G35KT 17/M06 A2969 RMK A01 T01651055  RH  022%=      5-min Rain = 0
KMNS 182140Z 27028G37KT 16/M07 A2969 RMK A01 T01641066  RH  020%=      5-min Rain = 0
KMNS 182145Z 27026G34KT 16/M07 A2969 RMK A01 T01611072  RH  020%=      5-min Rain = 0
KMNS 182150Z 27026G36KT 16/M08 A2969 RMK A01 T01571076  RH  019%=      5-min Rain = 0
KMNS 182155Z 27026G34KT 16/M08 A2969 RMK A01 T01601077  RH  019%=      5-min Rain = 0
KMNS 182200Z 27028G37KT 16/M08 A2969 RMK A01 T01611081  RH  018%=      5-min Rain = 0
KMNS 182205Z 27025G34KT 16/M08 A2969 RMK A01 T01581081  RH  019%=      5-min Rain = 0
KMNS 182210Z 27025G34KT 16/M08 A2969 RMK A01 T01581084  RH  018%=      5-min Rain = 0
KMNS 182215Z 26024G31KT 16/M10 A297 RMK A01 T01561097  RH  016%=      5-min Rain = 0
KMNS 182220Z 27021G31KT 15/M10 A297 RMK A01 T01531096  RH  017%=      5-min Rain = 0
KMNS 182225Z 27020G26KT 16/M10 A2969 RMK A01 T01571101  RH  016%=      5-min Rain = 0
KMNS 182230Z 26018G25KT 15/M10 A2969 RMK A01 T01541102  RH  016%=      5-min Rain = 0
KMNS 182235Z 27019G30KT 15/M11 A2969 RMK A01 T01531105  RH  016%=      5-min Rain = 0
KMNS 182240Z 27027G33KT 15/M12 A297 RMK A01 T01521118  RH  014%=      5-min Rain = 0
KMNS 182245Z 27024G32KT 15/M11 A297 RMK A01 T01531113  RH  015%=      5-min Rain = 0
KMNS 182250Z 28026G34KT 15/M10 A297 RMK A01 T01531101  RH  016%=      5-min Rain = 0
KMNS 182255Z 28027G35KT 15/M09 A2971 RMK A01 T01451091  RH  019%=      5-min Rain = 0
KMNS 182300Z 27025G35KT 14/M09 A2971 RMK A01 T01411085  RH  020%=      5-min Rain = 0
KMNS 182305Z 28026G38KT 14/M09 A2971 RMK A01 T01391088  RH  020%=      5-min Rain = 0
KMNS 182310Z 28026G36KT 14/M08 A2971 RMK A01 T01401083  RH  021%=      5-min Rain = 0
KMNS 182315Z 28029G37KT 14/M09 A2971 RMK A01 T01411089  RH  019%=      5-min Rain = 0
KMNS 182320Z 29028G38KT 14/M09 A2972 RMK A01 T01411089  RH  019%=      5-min Rain = 0
KMNS 182325Z 29031G42KT 14/M09 A2972 RMK A01 T01371087  RH  020%=      5-min Rain = 0
KMNS 182330Z 29027G37KT 14/M09 A2972 RMK A01 T01351086  RH  021%=      5-min Rain = 0
KMNS 182335Z 29028G36KT 13/M08 A2972 RMK A01 T01341082  RH  022%=      5-min Rain = 0
KMNS 182340Z 29026G33KT 13/M08 A2972 RMK A01 T01321079  RH  022%=      5-min Rain = 0
KMNS 182345Z 29023G32KT 13/M08 A2972 RMK A01 T01311078  RH  023%=      5-min Rain = 0
KMNS 182350Z 29025G35KT 13/M08 A2972 RMK A01 T01291076  RH  023%=      5-min Rain = 0
KMNS 182355Z 29026G35KT 13/M07 A2972 RMK A01 T01291074  RH  024%=      5-min Rain = 0
KMNS 190000Z 29028G36KT 13/M07 A2973 RMK A01 T01291074  RH  024%=      5-min Rain = 0
KMNS 190005Z 29025G34KT 13/M07 A2973 RMK A01 T01271074  RH  024%=      5-min Rain = 0
KMNS 190010Z 29024G32KT 13/M08 A2973 RMK A01 T01251075  RH  024%=      5-min Rain = 0
KMNS 190015Z 29026G37KT 13/M08 A2973 RMK A01 T01251076  RH  024%=      5-min Rain = 0
KMNS 190020Z 30031G44KT 13/M08 A2974 RMK A01 T01251076  RH  024%=      5-min Rain = 0
KMNS 190025Z 32038G48KT 12/M03 A2976 RMK A01 T01171031  RH  036%=      5-min Rain = 0
KMNS 190030Z 33035G44KT 11/M01 A2977 RMK A01 T01051013  RH  044%=      5-min Rain = 0
KMNS 190035Z 33034G44KT 10/M01 A2978 RMK A01 T00991008  RH  048%=      5-min Rain = 0
KMNS 190040Z 33032G42KT 10/M00 A298 RMK A01 T00951004  RH  050%=      5-min Rain = 0
KMNS 190045Z 33031G42KT 09/00 A2981 RMK A01 T00890002  RH  055%=      5-min Rain = 0
KMNS 190050Z 33034G43KT 08/01 A2982 RMK A01 T00840008  RH  060%=      5-min Rain = 0
KMNS 190055Z 33031G40KT 08/01 A2983 RMK A01 T00790011  RH  063%=      5-min Rain = 0
KMNS 190100Z 33026G34KT 08/01 A2983 RMK A01 T00760013  RH  065%=      5-min Rain = 0
KMNS 190105Z 34028G36KT 08/01 A2983 RMK A01 T00750012  RH  065%=      5-min Rain = 0
KMNS 190110Z 33024G33KT 07/01 A2983 RMK A01 T00720011  RH  066%=      5-min Rain = 0
KMNS 190115Z 33022G28KT 07/01 A2984 RMK A01 T00690012  RH  068%=      5-min Rain = 0
KMNS 190120Z 33025G34KT 07/02 A2985 RMK A01 T00690016  RH  070%=      5-min Rain = 0
KMNS 190125Z 33025G31KT 07/02 A2985 RMK A01 T00670017  RH  071%=      5-min Rain = 0
KMNS 190130Z 33025G32KT 07/02 A2986 RMK A01 T00660019  RH  073%=      5-min Rain = 0
KMNS 190135Z 33024G32KT 06/02 A2987 RMK A01 T00610024  RH  078%=      5-min Rain = 0
KMNS 190140Z 33024G32KT 06/03 A2987 RMK A01 T00580027  RH  082%=      5-min Rain = 0
KMNS 190145Z 33021G28KT 06/03 A2988 RMK A01 T00560028  RH  084%=      5-min Rain = 0
KMNS 190150Z 33021G29KT 06/03 A2988 RMK A01 T00550029  RH  085%=      5-min Rain = 0
KMNS 190155Z 33023G31KT 06/03 A2989 RMK A01 T00550028  RH  084%=      5-min Rain = 0
KMNS 190200Z 33026G33KT 05/03 A299 RMK A01 T00540026  RH  083%=      5-min Rain = 0
KMNS 190205Z 33024G31KT 05/02 A2991 RMK A01 T00520024  RH  083%=      5-min Rain = 0
KMNS 190210Z 33023G30KT 05/02 A2992 RMK A01 T00500024  RH  084%=      5-min Rain = 0
KMNS 190215Z 32021G27KT 05/03 A2992 RMK A01 T00490025  RH  086%=      5-min Rain = 0
KMNS 190220Z 32020G26KT 05/03 A2993 RMK A01 T00490027  RH  087%=      5-min Rain = 0
KMNS 190225Z 32019G27KT 05/03 A2993 RMK A01 T00490028  RH  088%=      5-min Rain = 0
KMNS 190230Z 32019G26KT 05/03 A2993 RMK A01 T00480029  RH  089%=      5-min Rain = 0
KMNS 190235Z 32022G29KT 05/03 A2994 RMK A01 T00470026  RH  088%=      5-min Rain = 0
KMNS 190240Z 32023G31KT 05/02 A2994 RMK A01 T00460024  RH  087%=      5-min Rain = 0.01
KMNS 190245Z 33022G29KT 05/02 A2994 RMK A01 T00460023  RH  087%=      5-min Rain = 0
KMNS 190250Z 33022G27KT 05/02 A2995 RMK A01 T00450022  RH  086%=      5-min Rain = 0
KMNS 190255Z 32019G26KT 05/02 A2995 RMK A01 T00450022  RH  086%=      5-min Rain = 0
KMNS 190300Z 32019G24KT 05/02 A2995 RMK A01 T00450022  RH  086%=      5-min Rain = 0
KMNS 190305Z 32019G26KT 04/02 A2996 RMK A01 T00440021  RH  086%=      5-min Rain = 0
KMNS 190310Z 32019G26KT 04/02 A2996 RMK A01 T00440021  RH  087%=      5-min Rain = 0
KMNS 190315Z 33019G25KT 04/02 A2996 RMK A01 T00430020  RH  086%=      5-min Rain = 0
KMNS 190320Z 33021G28KT 04/02 A2997 RMK A01 T00430019  RH  086%=      5-min Rain = 0
KMNS 190325Z 33022G31KT 04/02 A2997 RMK A01 T00420018  RH  086%=      5-min Rain = 0
KMNS 190330Z 33024G31KT 04/02 A2998 RMK A01 T00410018  RH  086%=      5-min Rain = 0
KMNS 190335Z 34028G33KT 04/02 A2998 RMK A01 T00380015  RH  086%=      5-min Rain = 0
KMNS 190340Z 34027G37KT 03/01 A2999 RMK A01 T00340013  RH  088%=      5-min Rain = 0
KMNS 190345Z 35029G42KT 03/01 A30 RMK A01 T00290008  RH  088%=      5-min Rain = 0
KMNS 190350Z 35025G32KT 03/01 A3001 RMK A01 T00250007  RH  089%=      5-min Rain = 0
KMNS 190355Z 34025G33KT 02/01 A3001 RMK A01 T00240007  RH  090%=      5-min Rain = 0
KMNS 190400Z 34030G38KT 02/00 A3002 RMK A01 T00210002  RH  088%=      5-min Rain = 0
KMNS 190405Z 34027G35KT 02/M00 A3002 RMK A01 T00191002  RH  087%=      5-min Rain = 0
KMNS 190410Z 35028G36KT 02/M00 A3003 RMK A01 T00181003  RH  087%=      5-min Rain = 0
KMNS 190415Z 35028G34KT 02/M00 A3003 RMK A01 T00181003  RH  087%=      5-min Rain = 0
KMNS 190420Z 35024G29KT 02/M00 A3003 RMK A01 T00171004  RH  087%=      5-min Rain = 0
KMNS 190425Z 36024G29KT 02/M01 A3004 RMK A01 T00161005  RH  087%=      5-min Rain = 0
KMNS 190430Z 35020G26KT 02/M00 A3004 RMK A01 T00151004  RH  088%=      5-min Rain = 0
KMNS 190435Z 35016G21KT 02/M00 A3005 RMK A01 T00151003  RH  089%=      5-min Rain = 0
KMNS 190440Z 34016KT 02/M00 A3005 RMK A01 T00151002  RH  090%=      5-min Rain = 0
KMNS 190445Z 34015G20KT 02/M00 A3006 RMK A01 T00151001  RH  090%=      5-min Rain = 0.01
KMNS 190450Z 34016G22KT 02/00 A3006 RMK A01 T001600-0  RH  090%=      5-min Rain = 0
KMNS 190455Z 34014KT 02/00 A3007 RMK A01 T00160000  RH  090%=      5-min Rain = 0
KMNS 190500Z 33014KT 02/00 A3007 RMK A01 T00170002  RH  091%=      5-min Rain = 0
KMNS 190505Z 33015G20KT 02/00 A3007 RMK A01 T00180003  RH  091%=      5-min Rain = 0
KMNS 190510Z 33016G22KT 02/00 A3007 RMK A01 T00180003  RH  091%=      5-min Rain = 0
KMNS 190515Z 33018G23KT 02/00 A3008 RMK A01 T00180003  RH  091%=      5-min Rain = 0
KMNS 190520Z 34020G29KT 02/00 A3008 RMK A01 T00180003  RH  091%=      5-min Rain = 0
KMNS 190525Z 34023G33KT 02/00 A3008 RMK A01 T00180001  RH  090%=      5-min Rain = 0
KMNS 190530Z 34025G32KT 02/M00 A3008 RMK A01 T00181001  RH  088%=      5-min Rain = 0
KMNS 190535Z 34023G31KT 02/M00 A3009 RMK A01 T00181002  RH  088%=      5-min Rain = 0
KMNS 190540Z 34021G28KT 02/M01 A3009 RMK A01 T00161005  RH  087%=      5-min Rain = 0
KMNS 190545Z 34024G32KT 01/M01 A3009 RMK A01 T00141008  RH  087%=      5-min Rain = 0
KMNS 190550Z 34023G29KT 01/M01 A3009 RMK A01 T00131008  RH  087%=      5-min Rain = 0
KMNS 190555Z 34023G31KT 01/M01 A301 RMK A01 T00141008  RH  086%=      5-min Rain = 0

Page generated in 0.0093 seconds.